Terminal Aerodrome Forecast
Issued by NWS Charleston, WV

Current Version | Previous Version | Text Only | Print | Product List | Glossary Off
Versions: 1 2 3 4 5 6 7 8 9 10 11 12 13 14 15 16 17 18 19 20 21 22 23 24 25 26 27

000
FTUS41 KRLX 281700
TAFCRW
TAF
KCRW 281723Z 2818/2918 22012G22KT P6SM BKN050
     FM282200 22008G18KT 5SM -SHRA BKN050
     FM290600 28005KT 5SM BR OVC025
     FM290800 28004KT 6SM BR BKN035
     FM291000 VRB03KT P6SM BKN045
     FM291700 26006KT P6SM BKN250=

USA.gov is the U.S. government's official web portal to all federal, state and local government web resources and services.